Time;durP1;ratioP1;P1;durP2;ratioP2;P2;SDS_P1;SDS_P2;PMS_P1;PMS_P2;Temp;Humidity;BMP_temperature;BMP_pressure;BME280_temperature;BME280_humidity;BME280_pressure;Samples;Min_cycle;Max_cycle;Signal;HPM_P1;HPM_P2
2023/10/03 00:01:04;;;;;;;17.67;10.00;;;;;;;;;;5008917;28;20445;-70
2023/10/03 00:03:32;;;;;;;18.70;11.13;;;;;;;;;;5012495;28;20482;-69
2023/10/03 00:05:58;;;;;;;21.20;11.23;;;;;;;;;;4994332;28;20431;-68
2023/10/03 00:08:26;;;;;;;24.33;9.33;;;;;;;;;;5015047;28;20518;-69
2023/10/03 00:10:52;;;;;;;25.83;11.67;;;;;;;;;;5012082;28;20571;-69
2023/10/03 00:13:19;;;;;;;27.47;13.17;;;;;;;;;;5011690;28;20531;-69
2023/10/03 00:15:45;;;;;;;22.60;10.60;;;;;;;;;;5016085;28;20486;-69
2023/10/03 00:18:12;;;;;;;26.37;12.30;;;;;;;;;;5016240;28;20430;-69
2023/10/03 00:20:38;;;;;;;23.03;12.23;;;;;;;;;;5014387;28;20436;-71
2023/10/03 00:23:05;;;;;;;23.20;10.97;;;;;;;;;;5015963;28;20444;-70
2023/10/03 00:25:31;;;;;;;15.77;10.10;;;;;;;;;;5016364;28;20439;-69
2023/10/03 00:28:01;;;;;;;17.20;10.50;;;;;;;;;;5014434;28;20463;-70
2023/10/03 00:30:31;;;;;;;17.53;10.30;;;;;;;;;;5014430;28;20847;-70
2023/10/03 00:32:58;;;;;;;21.23;11.17;;;;;;;;;;5016412;28;20478;-69
2023/10/03 00:35:24;;;;;;;14.27;9.80;;;;;;;;;;5016431;28;20439;-69
2023/10/03 00:37:51;;;;;;;21.50;10.80;;;;;;;;;;5012506;28;20494;-69
2023/10/03 00:42:47;;;;;;;17.87;11.17;;;;;;;;;;5013951;28;20435;-69
2023/10/03 00:45:21;;;;;;;25.37;10.93;;;;;;;;;;5017818;28;21001;-69
2023/10/03 00:47:48;;;;;;;15.97;7.37;;;;;;;;;;5016924;28;20425;-70
2023/10/03 00:50:16;;;;;;;11.30;7.27;;;;;;;;;;5015102;28;20933;-70
2023/10/03 00:52:43;;;;;;;16.60;8.43;;;;;;;;;;5013886;28;20530;-69
2023/10/03 00:55:11;;;;;;;7.07;6.40;;;;;;;;;;5012685;28;20444;-70
2023/10/03 00:57:37;;;;;;;10.90;7.30;;;;;;;;;;5014393;28;20431;-69
2023/10/03 01:00:15;;;;;;;11.53;6.10;;;;;;;;;;5011336;28;20443;-69
2023/10/03 01:02:49;;;;;;;7.43;6.40;;;;;;;;;;5015085;28;20446;-69
2023/10/03 01:05:16;;;;;;;17.37;10.23;;;;;;;;;;4997231;28;20587;-70
2023/10/03 01:07:44;;;;;;;21.10;10.57;;;;;;;;;;5015097;28;20435;-70
2023/10/03 01:10:17;;;;;;;26.43;9.50;;;;;;;;;;5014994;28;20471;-70
2023/10/03 01:12:44;;;;;;;17.20;7.20;;;;;;;;;;5017359;28;21020;-70
2023/10/03 01:15:19;;;;;;;17.23;10.17;;;;;;;;;;5015157;28;20478;-70
2023/10/03 01:17:49;;;;;;;18.10;10.30;;;;;;;;;;5013604;28;20443;-70
2023/10/03 01:20:21;;;;;;;23.70;10.10;;;;;;;;;;5012846;28;20440;-69
2023/10/03 01:22:51;;;;;;;16.07;10.30;;;;;;;;;;5013247;28;20448;-69
2023/10/03 01:25:17;;;;;;;21.93;11.43;;;;;;;;;;5013391;28;20970;-68
2023/10/03 01:27:44;;;;;;;29.83;9.90;;;;;;;;;;5013089;28;20452;-70
2023/10/03 01:30:12;;;;;;;25.80;9.90;;;;;;;;;;5014057;28;20493;-69
2023/10/03 01:32:41;;;;;;;28.70;11.40;;;;;;;;;;5015219;28;20435;-69
2023/10/03 01:35:08;;;;;;;15.67;9.47;;;;;;;;;;4993293;28;20557;-69
2023/10/03 01:37:34;;;;;;;7.77;6.30;;;;;;;;;;5009664;28;20435;-69
2023/10/03 01:40:00;;;;;;;19.70;9.63;;;;;;;;;;5011067;28;20443;-70
2023/10/03 01:42:26;;;;;;;16.03;9.53;;;;;;;;;;5016686;28;20435;-71
2023/10/03 01:44:52;;;;;;;15.37;9.70;;;;;;;;;;5015265;28;20546;-70
2023/10/03 01:47:18;;;;;;;20.27;10.73;;;;;;;;;;4992850;28;20435;-70
2023/10/03 01:49:44;;;;;;;16.50;10.07;;;;;;;;;;5012439;28;20566;-71
2023/10/03 01:52:10;;;;;;;36.57;10.43;;;;;;;;;;4997828;28;20460;-69
2023/10/03 01:54:36;;;;;;;15.10;9.70;;;;;;;;;;5014429;28;20954;-71
2023/10/03 01:57:02;;;;;;;15.97;9.07;;;;;;;;;;5015165;28;20525;-70
2023/10/03 01:59:28;;;;;;;21.23;10.20;;;;;;;;;;5013673;28;20440;-70
2023/10/03 02:01:54;;;;;;;16.80;9.90;;;;;;;;;;5012477;28;21089;-69
2023/10/03 02:04:20;;;;;;;22.20;9.00;;;;;;;;;;5013151;28;20434;-69
2023/10/03 02:06:46;;;;;;;14.90;8.70;;;;;;;;;;5013660;28;20431;-70
2023/10/03 02:09:12;;;;;;;17.57;9.73;;;;;;;;;;4998975;28;20505;-70
2023/10/03 02:11:38;;;;;;;20.90;11.00;;;;;;;;;;5015417;28;20455;-70
2023/10/03 02:14:07;;;;;;;22.50;11.07;;;;;;;;;;5016014;28;20510;-69
2023/10/03 02:16:40;;;;;;;13.50;8.20;;;;;;;;;;5017901;28;20454;-69
2023/10/03 02:19:06;;;;;;;16.03;9.53;;;;;;;;;;5000235;28;20450;-70
2023/10/03 02:21:32;;;;;;;10.20;7.73;;;;;;;;;;5013954;28;20447;-70
2023/10/03 02:23:58;;;;;;;13.00;7.43;;;;;;;;;;5016868;28;20490;-70
2023/10/03 02:26:28;;;;;;;21.83;8.93;;;;;;;;;;5016964;28;20820;-70
2023/10/03 02:28:54;;;;;;;10.97;8.60;;;;;;;;;;4998438;28;20428;-69
2023/10/03 02:31:20;;;;;;;11.53;7.70;;;;;;;;;;5017114;28;20538;-69
2023/10/03 02:33:47;;;;;;;11.20;6.83;;;;;;;;;;5019739;28;20443;-69
2023/10/03 02:36:15;;;;;;;10.07;6.30;;;;;;;;;;5018834;28;20951;-69
2023/10/03 02:38:41;;;;;;;12.00;7.23;;;;;;;;;;5017465;28;20865;-69
2023/10/03 02:41:07;;;;;;;12.10;6.63;;;;;;;;;;5015519;28;20443;-70
2023/10/03 02:43:34;;;;;;;9.17;6.23;;;;;;;;;;5017340;28;20439;-69
2023/10/03 02:46:00;;;;;;;7.43;6.67;;;;;;;;;;5018090;28;20432;-69
2023/10/03 02:48:27;;;;;;;10.63;6.40;;;;;;;;;;5016235;28;20432;-70
2023/10/03 02:50:53;;;;;;;6.93;6.23;;;;;;;;;;5016551;28;20485;-69
2023/10/03 02:53:20;;;;;;;14.57;7.13;;;;;;;;;;5018728;28;20435;-70
2023/10/03 02:55:47;;;;;;;9.57;6.60;;;;;;;;;;5016986;28;20443;-70
2023/10/03 02:58:13;;;;;;;7.80;5.80;;;;;;;;;;5017190;28;20428;-69
2023/10/03 03:00:39;;;;;;;9.80;6.87;;;;;;;;;;5016135;28;20947;-70
2023/10/03 03:03:09;;;;;;;16.20;6.80;;;;;;;;;;5014219;28;20446;-69
2023/10/03 03:05:36;;;;;;;10.00;6.53;;;;;;;;;;4995143;28;21364;-69
2023/10/03 03:08:10;;;;;;;9.77;5.93;;;;;;;;;;5014799;28;20446;-69
2023/10/03 03:10:38;;;;;;;11.43;6.63;;;;;;;;;;5019649;28;20514;-69
2023/10/03 03:13:08;;;;;;;11.37;6.30;;;;;;;;;;5016222;28;20431;-69
2023/10/03 03:15:37;;;;;;;7.27;5.63;;;;;;;;;;5019762;28;20842;-70
2023/10/03 03:18:03;;;;;;;7.60;5.83;;;;;;;;;;5017793;28;20431;-70
2023/10/03 03:20:37;;;;;;;8.80;6.33;;;;;;;;;;5016985;28;20471;-70
2023/10/03 03:23:03;;;;;;;14.83;5.80;;;;;;;;;;5016872;28;20431;-70
2023/10/03 03:25:39;;;;;;;10.23;6.93;;;;;;;;;;5016955;28;20539;-70
2023/10/03 03:28:12;;;;;;;23.23;6.77;;;;;;;;;;5016522;28;20430;-70
2023/10/03 03:30:45;;;;;;;8.33;6.67;;;;;;;;;;5016296;28;21680;-69
2023/10/03 03:33:11;;;;;;;8.43;5.70;;;;;;;;;;5017126;28;20432;-69
2023/10/03 03:35:41;;;;;;;11.23;6.30;;;;;;;;;;5016631;28;20451;-71
2023/10/03 03:38:07;;;;;;;9.57;7.27;;;;;;;;;;5015980;28;20432;-70
2023/10/03 03:40:34;;;;;;;9.93;6.70;;;;;;;;;;5016658;28;20455;-69
2023/10/03 03:43:02;;;;;;;10.97;7.57;;;;;;;;;;5017872;28;20494;-68
2023/10/03 03:45:28;;;;;;;7.90;5.73;;;;;;;;;;5015929;28;20452;-69
2023/10/03 03:47:57;;;;;;;9.43;5.93;;;;;;;;;;5014409;28;20482;-69
2023/10/03 03:50:23;;;;;;;6.13;5.10;;;;;;;;;;4996347;28;21123;-68
2023/10/03 03:52:51;;;;;;;6.33;4.67;;;;;;;;;;5016592;28;20427;-69
2023/10/03 03:55:17;;;;;;;7.80;4.70;;;;;;;;;;5017391;28;20968;-69
2023/10/03 03:57:45;;;;;;;4.00;3.60;;;;;;;;;;5017368;28;20442;-69
2023/10/03 04:00:14;;;;;;;4.73;4.30;;;;;;;;;;4999475;28;20869;-68
2023/10/03 04:02:40;;;;;;;11.00;4.60;;;;;;;;;;5017677;28;20777;-69
2023/10/03 04:05:08;;;;;;;4.27;3.97;;;;;;;;;;5014852;28;20489;-69
2023/10/03 04:07:38;;;;;;;5.20;4.03;;;;;;;;;;5014621;28;20955;-69
2023/10/03 04:10:06;;;;;;;5.27;3.70;;;;;;;;;;5015008;28;20496;-68
2023/10/03 04:12:40;;;;;;;7.10;5.10;;;;;;;;;;5014147;28;20443;-69
2023/10/03 04:15:11;;;;;;;7.00;5.23;;;;;;;;;;4992820;28;20871;-68
2023/10/03 04:17:37;;;;;;;7.47;4.40;;;;;;;;;;5005715;28;20452;-70
2023/10/03 04:20:13;;;;;;;7.87;4.83;;;;;;;;;;5013649;28;20432;-69
2023/10/03 04:22:39;;;;;;;5.80;4.40;;;;;;;;;;4997025;28;20467;-69
2023/10/03 04:25:05;;;;;;;6.37;4.20;;;;;;;;;;5005875;28;20472;-69
2023/10/03 04:27:32;;;;;;;21.40;6.20;;;;;;;;;;5005732;28;20984;-69
2023/10/03 04:29:58;;;;;;;7.83;5.70;;;;;;;;;;5004409;28;20566;-69
2023/10/03 04:32:24;;;;;;;5.93;5.33;;;;;;;;;;5004060;28;20571;-69
2023/10/03 04:34:50;;;;;;;5.03;4.60;;;;;;;;;;5005561;28;20534;-69
2023/10/03 04:37:16;;;;;;;7.77;4.67;;;;;;;;;;5004701;28;20455;-69
2023/10/03 04:39:42;;;;;;;8.73;5.07;;;;;;;;;;5004688;28;20448;-69
2023/10/03 04:42:08;;;;;;;5.30;4.90;;;;;;;;;;5005037;28;20548;-69
2023/10/03 04:44:34;;;;;;;6.27;4.80;;;;;;;;;;4995399;28;20435;-69
2023/10/03 04:47:01;;;;;;;7.23;4.23;;;;;;;;;;5005463;28;20942;-69
2023/10/03 04:49:27;;;;;;;9.53;4.60;;;;;;;;;;5004681;28;20451;-69
2023/10/03 04:51:52;;;;;;;6.10;4.30;;;;;;;;;;5004695;28;20948;-69
2023/10/03 04:54:18;;;;;;;6.70;5.60;;;;;;;;;;4994226;28;20848;-68
2023/10/03 04:56:44;;;;;;;8.83;4.53;;;;;;;;;;5004195;28;20457;-69
2023/10/03 04:59:11;;;;;;;6.37;5.33;;;;;;;;;;5004949;28;20427;-68
2023/10/03 05:01:36;;;;;;;6.70;5.10;;;;;;;;;;5007709;28;20455;-68
2023/10/03 05:04:04;;;;;;;8.33;4.47;;;;;;;;;;5005264;28;20436;-69
2023/10/03 05:06:30;;;;;;;7.20;5.43;;;;;;;;;;5005828;28;20811;-69
2023/10/03 05:08:56;;;;;;;7.10;5.20;;;;;;;;;;5004083;28;20432;-69
2023/10/03 05:11:22;;;;;;;7.53;4.67;;;;;;;;;;5008618;28;20863;-69
2023/10/03 05:13:48;;;;;;;4.40;4.00;;;;;;;;;;5009533;28;20854;-69
2023/10/03 05:16:14;;;;;;;9.13;4.63;;;;;;;;;;5009651;28;20498;-68
2023/10/03 05:18:42;;;;;;;9.63;4.37;;;;;;;;;;4992768;28;20420;-69
2023/10/03 05:21:07;;;;;;;5.00;4.13;;;;;;;;;;5009450;28;20455;-69
2023/10/03 05:23:33;;;;;;;6.87;3.97;;;;;;;;;;5009183;28;20454;-69
2023/10/03 05:26:02;;;;;;;4.57;4.27;;;;;;;;;;5008353;28;20432;-69
2023/10/03 05:28:28;;;;;;;14.87;3.83;;;;;;;;;;5008798;28;20443;-69
2023/10/03 05:30:58;;;;;;;3.90;3.60;;;;;;;;;;5008662;28;20495;-69
2023/10/03 05:33:24;;;;;;;6.53;4.20;;;;;;;;;;4990787;28;20444;-68
2023/10/03 05:35:50;;;;;;;3.60;3.50;;;;;;;;;;5010007;28;20435;-69
2023/10/03 05:38:16;;;;;;;4.03;3.67;;;;;;;;;;4990242;28;20432;-69
2023/10/03 05:40:43;;;;;;;4.27;3.87;;;;;;;;;;5004785;28;20937;-69
2023/10/03 05:43:11;;;;;;;5.77;4.33;;;;;;;;;;4990069;28;20448;-70
2023/10/03 05:45:37;;;;;;;6.23;4.10;;;;;;;;;;5009760;28;20425;-70
2023/10/03 05:48:03;;;;;;;11.90;4.67;;;;;;;;;;5008053;28;20443;-69
2023/10/03 05:50:29;;;;;;;4.60;4.10;;;;;;;;;;5009072;28;20491;-69
2023/10/03 05:52:55;;;;;;;3.37;3.17;;;;;;;;;;4991139;28;20503;-70
2023/10/03 05:55:21;;;;;;;5.77;3.50;;;;;;;;;;5006203;28;21063;-71
2023/10/03 05:57:47;;;;;;;3.90;3.60;;;;;;;;;;5005691;28;20444;-69
2023/10/03 06:00:18;;;;;;;7.83;4.00;;;;;;;;;;4990326;28;20466;-68
2023/10/03 06:02:47;;;;;;;3.97;3.77;;;;;;;;;;5009101;28;20444;-69
2023/10/03 06:05:14;;;;;;;5.17;3.63;;;;;;;;;;4972889;28;20466;-69
2023/10/03 06:07:44;;;;;;;4.90;3.57;;;;;;;;;;4819231;28;20569;-69
2023/10/03 06:10:11;;;;;;;4.30;3.90;;;;;;;;;;4969209;28;20911;-70
2023/10/03 06:12:40;;;;;;;3.60;3.30;;;;;;;;;;4969698;28;20816;-72
2023/10/03 06:15:06;;;;;;;4.20;3.90;;;;;;;;;;4970263;28;20519;-70
2023/10/03 06:17:33;;;;;;;3.67;3.40;;;;;;;;;;4970027;28;20426;-69
2023/10/03 06:19:59;;;;;;;6.53;3.70;;;;;;;;;;4970126;28;20446;-71
2023/10/03 06:22:25;;;;;;;4.43;4.13;;;;;;;;;;4969859;28;20853;-69
2023/10/03 06:24:53;;;;;;;4.20;3.90;;;;;;;;;;4970088;28;20540;-72
2023/10/03 06:27:19;;;;;;;3.10;3.00;;;;;;;;;;4970025;28;20504;-73
2023/10/03 06:29:47;;;;;;;3.60;3.40;;;;;;;;;;4970283;28;20752;-71
2023/10/03 06:32:13;;;;;;;7.33;4.10;;;;;;;;;;4969682;28;20457;-68
2023/10/03 06:34:39;;;;;;;5.50;3.63;;;;;;;;;;4970004;28;20448;-69
2023/10/03 06:37:04;;;;;;;7.63;3.23;;;;;;;;;;4967828;28;20458;-69
2023/10/03 06:39:31;;;;;;;5.07;3.50;;;;;;;;;;4969304;28;20942;-69
2023/10/03 06:41:58;;;;;;;4.70;4.30;;;;;;;;;;4969839;28;20430;-69
2023/10/03 06:44:24;;;;;;;7.57;4.03;;;;;;;;;;4969902;28;20450;-69
2023/10/03 06:46:51;;;;;;;5.43;4.20;;;;;;;;;;4966894;28;20988;-69
2023/10/03 06:49:17;;;;;;;8.30;3.50;;;;;;;;;;4969267;28;20484;-69
2023/10/03 06:51:43;;;;;;;6.80;4.07;;;;;;;;;;4968947;28;20536;-69
2023/10/03 06:54:09;;;;;;;6.70;4.10;;;;;;;;;;4967885;28;20525;-71
2023/10/03 06:56:35;;;;;;;5.60;4.43;;;;;;;;;;4969234;28;20860;-69
2023/10/03 06:59:04;;;;;;;4.87;4.00;;;;;;;;;;4969303;28;20436;-69
2023/10/03 07:01:30;;;;;;;11.10;4.73;;;;;;;;;;4972701;28;20492;-68
2023/10/03 07:03:57;;;;;;;6.03;4.20;;;;;;;;;;4972029;28;20441;-69
2023/10/03 07:06:23;;;;;;;5.40;4.43;;;;;;;;;;4974461;28;20437;-69
2023/10/03 07:08:49;;;;;;;10.10;4.90;;;;;;;;;;4971946;28;20941;-70
2023/10/03 07:11:16;;;;;;;4.73;4.20;;;;;;;;;;4972894;28;20513;-69
2023/10/03 07:13:42;;;;;;;5.00;3.67;;;;;;;;;;4973667;28;20441;-69
2023/10/03 07:16:09;;;;;;;3.33;3.13;;;;;;;;;;4973283;28;20844;-70
2023/10/03 07:18:35;;;;;;;4.33;3.93;;;;;;;;;;4972793;28;20520;-69
2023/10/03 07:21:03;;;;;;;3.33;3.17;;;;;;;;;;4973131;28;20465;-69
2023/10/03 07:23:29;;;;;;;3.97;3.87;;;;;;;;;;4972684;28;20441;-70
2023/10/03 07:25:55;;;;;;;4.30;3.90;;;;;;;;;;4972820;28;20814;-70
2023/10/03 07:28:21;;;;;;;3.80;3.60;;;;;;;;;;4972339;28;20429;-70
2023/10/03 07:30:47;;;;;;;7.13;3.80;;;;;;;;;;4971338;28;21003;-71
2023/10/03 07:33:13;;;;;;;3.17;2.97;;;;;;;;;;4970256;28;20917;-69
2023/10/03 07:35:41;;;;;;;4.80;4.40;;;;;;;;;;4972797;28;20445;-70
2023/10/03 07:38:10;;;;;;;5.33;4.07;;;;;;;;;;4954295;28;20441;-70
2023/10/03 07:40:38;;;;;;;4.17;3.87;;;;;;;;;;4971482;28;20526;-70
2023/10/03 07:43:06;;;;;;;4.20;3.90;;;;;;;;;;4971527;28;20462;-70
2023/10/03 07:45:32;;;;;;;8.47;4.10;;;;;;;;;;4973015;28;21044;-69
2023/10/03 07:48:04;;;;;;;3.40;3.10;;;;;;;;;;4973070;28;20451;-69
2023/10/03 07:50:31;;;;;;;5.00;3.53;;;;;;;;;;4970003;28;20481;-70
2023/10/03 07:52:57;;;;;;;6.13;3.60;;;;;;;;;;4970017;28;20438;-70
2023/10/03 07:55:25;;;;;;;4.10;3.80;;;;;;;;;;4971088;28;20431;-70
2023/10/03 07:57:54;;;;;;;14.40;4.30;;;;;;;;;;4972622;28;20437;-69
2023/10/03 08:00:21;;;;;;;4.00;3.70;;;;;;;;;;4972535;28;20449;-69
2023/10/03 08:02:49;;;;;;;10.30;3.40;;;;;;;;;;4973722;28;20434;-69
2023/10/03 08:05:16;;;;;;;8.60;3.10;;;;;;;;;;4972371;28;20942;-69
2023/10/03 08:07:47;;;;;;;3.10;3.00;;;;;;;;;;4972435;28;20497;-69
2023/10/03 08:10:14;;;;;;;3.57;3.30;;;;;;;;;;4972416;28;21116;-71
2023/10/03 08:12:40;;;;;;;3.93;3.70;;;;;;;;;;4968560;28;20528;-69
2023/10/03 08:15:19;;;;;;;7.60;4.20;;;;;;;;;;4969959;28;20481;-69
2023/10/03 08:17:48;;;;;;;4.03;3.73;;;;;;;;;;4971780;28;20442;-69
2023/10/03 08:20:15;;;;;;;7.47;3.57;;;;;;;;;;4972728;28;20479;-70
2023/10/03 08:22:42;;;;;;;4.00;3.07;;;;;;;;;;4972137;28;20512;-69
2023/10/03 08:25:09;;;;;;;4.30;3.60;;;;;;;;;;4970577;28;20441;-68
2023/10/03 08:27:35;;;;;;;16.87;3.90;;;;;;;;;;4971512;28;20438;-69
2023/10/03 08:30:03;;;;;;;6.37;3.23;;;;;;;;;;4970328;28;20469;-74
2023/10/03 08:32:29;;;;;;;2.83;2.63;;;;;;;;;;4974156;28;20445;-69
2023/10/03 08:34:55;;;;;;;3.43;3.17;;;;;;;;;;4970928;28;22241;-69
2023/10/03 08:37:21;;;;;;;4.10;3.80;;;;;;;;;;4971647;28;20426;-69
2023/10/03 08:39:51;;;;;;;7.27;4.60;;;;;;;;;;4971104;28;20433;-70
2023/10/03 08:42:52;;;;;;;3.67;3.37;;;;;;;;;;4971204;28;20437;-72
2023/10/03 08:45:16;;;;;;;8.40;3.43;;;;;;;;;;4970759;28;20450;-74
2023/10/03 08:47:48;;;;;;;8.20;4.27;;;;;;;;;;4971117;28;20525;-73
2023/10/03 08:50:29;;;;;;;6.83;3.47;;;;;;;;;;4969746;28;20489;-69
2023/10/03 08:52:56;;;;;;;3.80;3.50;;;;;;;;;;4970440;28;20504;-73
2023/10/03 08:55:26;;;;;;;7.87;2.90;;;;;;;;;;4972243;28;20444;-71
2023/10/03 08:57:52;;;;;;;3.57;3.27;;;;;;;;;;4971153;28;20424;-70
2023/10/03 09:00:25;;;;;;;3.50;3.20;;;;;;;;;;4962950;28;20446;-71
2023/10/03 09:02:52;;;;;;;3.93;3.73;;;;;;;;;;4958701;28;20473;-70
2023/10/03 09:05:19;;;;;;;7.83;4.10;;;;;;;;;;4983759;28;20461;-69
2023/10/03 09:07:48;;;;;;;7.53;3.90;;;;;;;;;;4971099;28;20422;-72
2023/10/03 09:10:24;;;;;;;6.23;3.67;;;;;;;;;;4968220;28;20939;-69
2023/10/03 09:13:03;;;;;;;4.13;3.73;;;;;;;;;;4970441;28;20426;-70
2023/10/03 09:15:37;;;;;;;9.70;4.60;;;;;;;;;;4971029;28;20480;-69
2023/10/03 09:18:07;;;;;;;6.23;3.20;;;;;;;;;;4971040;28;20426;-70
2023/10/03 09:20:35;;;;;;;4.37;4.07;;;;;;;;;;4971406;28;20833;-69
2023/10/03 09:23:05;;;;;;;4.20;3.73;;;;;;;;;;4970455;28;20434;-69
2023/10/03 09:25:32;;;;;;;8.37;3.87;;;;;;;;;;4971462;28;20492;-73
2023/10/03 09:28:08;;;;;;;19.43;4.27;;;;;;;;;;4970549;28;20442;-69
2023/10/03 09:30:40;;;;;;;17.23;4.10;;;;;;;;;;4970880;28;20492;-69
2023/10/03 09:33:08;;;;;;;4.80;4.50;;;;;;;;;;4971235;28;20417;-70
2023/10/03 09:35:34;;;;;;;5.17;4.00;;;;;;;;;;4971054;28;20437;-69
2023/10/03 09:38:08;;;;;;;5.33;4.57;;;;;;;;;;4970084;28;20428;-69
2023/10/03 09:40:49;;;;;;;4.30;3.63;;;;;;;;;;4971154;28;20429;-69
2023/10/03 09:43:16;;;;;;;8.13;4.20;;;;;;;;;;4969343;28;20533;-68
2023/10/03 09:45:45;;;;;;;4.70;4.20;;;;;;;;;;4969785;28;20462;-71
2023/10/03 09:48:12;;;;;;;5.80;3.70;;;;;;;;;;4970274;28;20480;-70
2023/10/03 09:50:39;;;;;;;4.70;4.30;;;;;;;;;;4969776;28;20485;-73
2023/10/03 09:53:06;;;;;;;5.17;3.63;;;;;;;;;;4969161;28;20537;-70
2023/10/03 09:55:44;;;;;;;5.60;4.00;;;;;;;;;;4970458;28;20430;-72
2023/10/03 09:58:10;;;;;;;3.87;3.43;;;;;;;;;;4968458;28;20433;-70
2023/10/03 10:00:39;;;;;;;4.10;3.80;;;;;;;;;;4970882;28;20441;-69
2023/10/03 10:03:13;;;;;;;6.77;3.40;;;;;;;;;;4971035;28;20422;-73
2023/10/03 10:05:46;;;;;;;7.17;5.30;;;;;;;;;;4971021;28;20532;-71
2023/10/03 10:08:32;;;;;;;4.77;4.37;;;;;;;;;;4969929;28;20434;-70
2023/10/03 10:11:07;;;;;;;8.23;3.87;;;;;;;;;;4949594;28;20576;-69
2023/10/03 10:13:36;;;;;;;5.63;5.10;;;;;;;;;;4970528;28;20418;-69
2023/10/03 10:16:35;;;;;;;4.83;4.17;;;;;;;;;;4968911;28;21033;-70
2023/10/03 10:18:57;;;;;;;4.63;4.33;;;;;;;;;;4965800;28;20433;-71
2023/10/03 10:21:24;;;;;;;14.23;4.53;;;;;;;;;;4969641;28;20811;-73
2023/10/03 10:24:09;;;;;;;5.63;5.10;;;;;;;;;;4969371;28;20946;-70
2023/10/03 10:26:35;;;;;;;6.17;5.33;;;;;;;;;;4970288;28;20580;-69
2023/10/03 10:29:08;;;;;;;4.97;4.40;;;;;;;;;;4967130;28;20457;-70
2023/10/03 10:31:42;;;;;;;6.70;4.60;;;;;;;;;;4967384;28;20951;-68
2023/10/03 10:34:20;;;;;;;5.60;5.00;;;;;;;;;;4966403;28;20541;-73
2023/10/03 10:37:09;;;;;;;6.10;5.20;;;;;;;;;;4967873;28;20484;-71
2023/10/03 10:39:50;;;;;;;8.73;4.80;;;;;;;;;;4971372;28;20441;-70
2023/10/03 10:42:16;;;;;;;9.37;4.90;;;;;;;;;;4971352;28;20430;-70
2023/10/03 10:45:01;;;;;;;13.70;5.90;;;;;;;;;;4971417;28;20456;-70
2023/10/03 10:47:27;;;;;;;8.10;4.80;;;;;;;;;;4969630;28;20430;-69
2023/10/03 10:49:57;;;;;;;13.83;5.77;;;;;;;;;;4969545;28;20489;-68
2023/10/03 10:52:24;;;;;;;5.50;4.70;;;;;;;;;;4969992;28;20532;-74
2023/10/03 10:54:50;;;;;;;8.80;5.40;;;;;;;;;;4969673;28;20446;-69
2023/10/03 10:57:17;;;;;;;5.47;4.83;;;;;;;;;;4971146;28;20440;-71
2023/10/03 10:59:43;;;;;;;9.23;5.70;;;;;;;;;;4968765;28;20446;-73
2023/10/03 11:02:16;;;;;;;5.20;4.70;;;;;;;;;;4964831;28;20450;-69
2023/10/03 11:04:43;;;;;;;11.30;5.27;;;;;;;;;;4970966;28;20954;-71
2023/10/03 11:07:10;;;;;;;5.00;4.60;;;;;;;;;;4969992;28;20430;-71
2023/10/03 11:09:39;;;;;;;6.50;5.47;;;;;;;;;;4969987;28;20882;-70
2023/10/03 11:12:06;;;;;;;6.90;6.20;;;;;;;;;;4970895;28;20496;-72
2023/10/03 11:14:33;;;;;;;15.43;6.10;;;;;;;;;;4969467;28;20477;-70
2023/10/03 11:17:01;;;;;;;8.60;5.20;;;;;;;;;;4968718;28;20988;-71
2023/10/03 11:19:30;;;;;;;11.00;4.83;;;;;;;;;;4969047;28;20934;-71
2023/10/03 11:21:56;;;;;;;7.60;5.27;;;;;;;;;;4966828;28;20494;-69
2023/10/03 11:24:23;;;;;;;11.30;5.33;;;;;;;;;;4970600;28;20438;-68
2023/10/03 11:26:49;;;;;;;5.93;4.80;;;;;;;;;;4970804;28;20509;-74
2023/10/03 11:29:16;;;;;;;9.37;4.63;;;;;;;;;;4968898;28;20457;-70
2023/10/03 11:31:45;;;;;;;12.13;4.57;;;;;;;;;;4971889;28;20485;-70
2023/10/03 11:34:11;;;;;;;5.40;4.90;;;;;;;;;;4972234;28;20926;-70
2023/10/03 11:36:45;;;;;;;9.13;5.07;;;;;;;;;;4971609;28;20426;-71
2023/10/03 11:39:13;;;;;;;4.60;4.27;;;;;;;;;;4972926;28;20545;-72
2023/10/03 11:41:39;;;;;;;12.57;6.33;;;;;;;;;;4973315;28;20422;-73
2023/10/03 11:44:16;;;;;;;20.73;5.30;;;;;;;;;;4971067;28;20426;-69
2023/10/03 11:46:44;;;;;;;5.30;4.83;;;;;;;;;;4972118;28;20957;-69
2023/10/03 11:49:10;;;;;;;17.10;5.27;;;;;;;;;;4972409;28;20563;-72
2023/10/03 11:51:41;;;;;;;11.10;5.93;;;;;;;;;;4972482;28;21028;-73
2023/10/03 11:54:10;;;;;;;11.93;4.67;;;;;;;;;;4971406;28;20434;-71
2023/10/03 11:56:40;;;;;;;7.70;4.97;;;;;;;;;;4970233;28;20934;-73
2023/10/03 11:59:07;;;;;;;9.27;4.30;;;;;;;;;;4973976;28;20560;-74
2023/10/03 12:01:35;;;;;;;4.90;4.40;;;;;;;;;;4972488;28;20434;-73
2023/10/03 12:04:01;;;;;;;5.93;4.80;;;;;;;;;;4972762;28;20422;-72
2023/10/03 12:06:27;;;;;;;8.23;4.90;;;;;;;;;;4968328;28;20430;-70
2023/10/03 12:08:53;;;;;;;8.83;4.50;;;;;;;;;;4971752;28;21325;-73
2023/10/03 12:11:20;;;;;;;5.43;4.80;;;;;;;;;;4970037;28;20481;-74
2023/10/03 12:13:46;;;;;;;4.33;4.10;;;;;;;;;;4969869;28;20429;-72
2023/10/03 12:16:12;;;;;;;6.77;4.20;;;;;;;;;;4969223;28;20544;-71
2023/10/03 12:18:38;;;;;;;10.50;5.20;;;;;;;;;;4970341;28;20433;-75
2023/10/03 12:21:04;;;;;;;4.90;4.60;;;;;;;;;;4969754;28;20926;-70
2023/10/03 12:23:30;;;;;;;10.93;4.63;;;;;;;;;;4972103;28;21185;-70
2023/10/03 12:25:59;;;;;;;7.33;4.33;;;;;;;;;;4973396;28;20441;-70
2023/10/03 12:28:25;;;;;;;8.20;5.70;;;;;;;;;;4969770;28;20485;-70
2023/10/03 12:30:51;;;;;;;5.13;4.80;;;;;;;;;;4972200;28;20481;-71
2023/10/03 12:33:18;;;;;;;6.03;5.40;;;;;;;;;;4972196;28;20498;-71
2023/10/03 12:35:45;;;;;;;5.17;4.67;;;;;;;;;;4968327;28;20446;-69
2023/10/03 12:38:11;;;;;;;8.93;4.63;;;;;;;;;;4970273;28;20457;-72
2023/10/03 12:40:37;;;;;;;4.30;3.90;;;;;;;;;;4966269;28;20441;-69
2023/10/03 12:43:03;;;;;;;4.07;3.70;;;;;;;;;;4968481;28;20497;-69
2023/10/03 12:45:29;;;;;;;6.47;4.10;;;;;;;;;;4969850;28;20472;-70
2023/10/03 12:47:56;;;;;;;5.23;4.10;;;;;;;;;;4970545;28;20428;-73
2023/10/03 12:50:25;;;;;;;4.90;4.47;;;;;;;;;;4969170;28;20478;-70
2023/10/03 12:52:51;;;;;;;5.20;4.70;;;;;;;;;;4967632;28;20525;-69
2023/10/03 12:55:20;;;;;;;4.40;4.20;;;;;;;;;;4969976;28;20529;-69
2023/10/03 12:57:48;;;;;;;6.90;4.70;;;;;;;;;;4968062;28;20198;-69
2023/10/03 13:00:20;;;;;;;7.17;4.87;;;;;;;;;;4970934;28;20437;-69
2023/10/03 13:02:47;;;;;;;7.33;3.77;;;;;;;;;;4971195;28;20509;-69
2023/10/03 13:05:13;;;;;;;7.23;4.30;;;;;;;;;;4968857;28;20438;-69
2023/10/03 13:07:39;;;;;;;7.30;3.67;;;;;;;;;;4969154;28;20442;-69
2023/10/03 13:10:12;;;;;;;7.00;4.13;;;;;;;;;;4969980;28;21013;-69
2023/10/03 13:12:56;;;;;;;4.13;3.83;;;;;;;;;;4970415;28;20872;-69
2023/10/03 13:15:23;;;;;;;4.37;4.17;;;;;;;;;;4968881;28;20473;-69
2023/10/03 13:17:50;;;;;;;4.30;4.00;;;;;;;;;;4970132;28;20442;-70
2023/10/03 13:20:22;;;;;;;4.60;4.23;;;;;;;;;;4969011;28;20540;-69
2023/10/03 13:22:49;;;;;;;5.30;3.73;;;;;;;;;;4970958;28;20450;-69
2023/10/03 13:25:22;;;;;;;6.20;3.43;;;;;;;;;;4970935;28;20844;-69
2023/10/03 13:27:49;;;;;;;9.10;5.03;;;;;;;;;;4970389;28;20450;-69
2023/10/03 13:30:18;;;;;;;4.27;3.40;;;;;;;;;;4969302;28;21012;-69
2023/10/03 13:32:48;;;;;;;3.90;3.70;;;;;;;;;;4969849;28;20734;-70
2023/10/03 13:35:14;;;;;;;4.80;4.40;;;;;;;;;;4970663;28;20434;-69
2023/10/03 13:37:40;;;;;;;10.50;4.17;;;;;;;;;;4970922;28;20454;-69
2023/10/03 13:40:07;;;;;;;4.37;3.97;;;;;;;;;;4968814;28;20434;-69
2023/10/03 13:42:33;;;;;;;5.20;4.17;;;;;;;;;;4969756;28;20456;-69
2023/10/03 13:44:59;;;;;;;9.93;5.07;;;;;;;;;;4971982;28;21066;-69
2023/10/03 13:47:25;;;;;;;4.17;3.87;;;;;;;;;;4964694;28;20446;-69
2023/10/03 13:49:52;;;;;;;14.13;4.37;;;;;;;;;;4966199;28;20437;-69
2023/10/03 13:52:18;;;;;;;4.23;3.70;;;;;;;;;;4969571;28;20434;-69
2023/10/03 13:54:44;;;;;;;7.53;3.60;;;;;;;;;;4968108;28;20778;-69
2023/10/03 13:57:11;;;;;;;10.80;4.57;;;;;;;;;;4970089;28;20474;-68
2023/10/03 13:59:37;;;;;;;5.00;3.40;;;;;;;;;;4969951;28;20445;-69
2023/10/03 14:02:03;;;;;;;4.07;3.77;;;;;;;;;;4970171;28;20488;-68
2023/10/03 14:04:30;;;;;;;14.80;3.07;;;;;;;;;;4968102;28;20437;-69
2023/10/03 14:06:56;;;;;;;4.67;4.27;;;;;;;;;;4969809;28;20442;-68
2023/10/03 14:09:27;;;;;;;12.30;4.00;;;;;;;;;;4959062;28;20487;-68
2023/10/03 14:11:56;;;;;;;6.80;4.50;;;;;;;;;;4973256;28;20847;-68
2023/10/03 14:14:22;;;;;;;3.27;2.83;;;;;;;;;;4971428;28;20827;-69
2023/10/03 14:16:48;;;;;;;4.47;4.00;;;;;;;;;;4973819;28;20528;-68
2023/10/03 14:19:15;;;;;;;11.37;3.63;;;;;;;;;;4974499;28;20754;-68
2023/10/03 14:21:42;;;;;;;6.03;3.90;;;;;;;;;;4974072;28;20441;-68
2023/10/03 14:24:09;;;;;;;3.67;3.37;;;;;;;;;;4972463;28;20426;-68
2023/10/03 14:26:35;;;;;;;4.73;4.03;;;;;;;;;;4974123;28;20962;-70
2023/10/03 14:29:01;;;;;;;4.30;3.87;;;;;;;;;;4971633;28;20474;-68
2023/10/03 14:31:27;;;;;;;3.50;3.23;;;;;;;;;;4974186;28;20513;-68
2023/10/03 14:33:53;;;;;;;5.60;3.40;;;;;;;;;;4972955;28;20453;-68
2023/10/03 14:36:19;;;;;;;9.90;5.53;;;;;;;;;;4973815;28;20438;-69
2023/10/03 14:38:45;;;;;;;11.43;3.13;;;;;;;;;;4973058;28;20497;-68
2023/10/03 14:41:11;;;;;;;3.63;3.17;;;;;;;;;;4973392;28;20433;-68
2023/10/03 14:43:40;;;;;;;11.93;4.00;;;;;;;;;;4975139;28;20438;-68
2023/10/03 14:46:06;;;;;;;8.27;3.40;;;;;;;;;;4974069;28;20528;-69